sensor_id;sensor_type;location;lat;lon;timestamp;pressure;altitude;pressure_sealevel;temperature;humidity
64294;BME280;50636;45.596;5.258;2022-12-18T00:01:32;99534.91;;;2.60;65.56
64294;BME280;50636;45.596;5.258;2022-12-18T00:04:00;99534.91;;;2.60;65.41
64294;BME280;50636;45.596;5.258;2022-12-18T00:06:28;99540.53;;;2.66;65.39
64294;BME280;50636;45.596;5.258;2022-12-18T00:08:56;99528.91;;;2.60;64.93
64294;BME280;50636;45.596;5.258;2022-12-18T00:11:25;99532.53;;;2.48;64.60
64294;BME280;50636;45.596;5.258;2022-12-18T00:13:51;99527.16;;;2.39;64.99
64294;BME280;50636;45.596;5.258;2022-12-18T00:16:20;99525.31;;;2.30;65.30
64294;BME280;50636;45.596;5.258;2022-12-18T00:18:48;99527.03;;;2.20;65.71
64294;BME280;50636;45.596;5.258;2022-12-18T00:21:14;99525.84;;;2.24;65.71
64294;BME280;50636;45.596;5.258;2022-12-18T00:23:42;99516.47;;;2.12;66.69
64294;BME280;50636;45.596;5.258;2022-12-18T00:26:23;99515.28;;;2.16;67.25
64294;BME280;50636;45.596;5.258;2022-12-18T00:28:49;99510.03;;;2.27;67.48
64294;BME280;50636;45.596;5.258;2022-12-18T00:31:24;99512.34;;;2.09;67.71
64294;BME280;50636;45.596;5.258;2022-12-18T00:33:50;99514.06;;;1.99;68.29
64294;BME280;50636;45.596;5.258;2022-12-18T00:36:21;99518.09;;;1.92;68.98
64294;BME280;50636;45.596;5.258;2022-12-18T00:38:48;99514.28;;;1.75;69.36
64294;BME280;50636;45.596;5.258;2022-12-18T00:41:15;99520.91;;;1.56;70.14
64294;BME280;50636;45.596;5.258;2022-12-18T00:44:00;99513.59;;;1.18;70.61
64294;BME280;50636;45.596;5.258;2022-12-18T00:46:26;99526.53;;;0.95;71.26
64294;BME280;50636;45.596;5.258;2022-12-18T00:48:51;99521.63;;;0.81;72.27
64294;BME280;50636;45.596;5.258;2022-12-18T00:51:17;99520.44;;;0.74;72.65
64294;BME280;50636;45.596;5.258;2022-12-18T00:53:42;99518.31;;;0.79;73.50
64294;BME280;50636;45.596;5.258;2022-12-18T00:56:08;99521.72;;;0.79;73.11
64294;BME280;50636;45.596;5.258;2022-12-18T00:58:33;99520.31;;;0.75;73.00
64294;BME280;50636;45.596;5.258;2022-12-18T01:01:04;99518.09;;;0.71;73.15
64294;BME280;50636;45.596;5.258;2022-12-18T01:03:30;99519.38;;;0.65;73.06
64294;BME280;50636;45.596;5.258;2022-12-18T01:05:56;99525.09;;;0.57;73.05
64294;BME280;50636;45.596;5.258;2022-12-18T01:08:21;99530.25;;;0.46;72.99
64294;BME280;50636;45.596;5.258;2022-12-18T01:10:47;99528.72;;;0.44;73.40
64294;BME280;50636;45.596;5.258;2022-12-18T01:13:13;99534.50;;;0.47;73.98
64294;BME280;50636;45.596;5.258;2022-12-18T01:15:39;99539.34;;;0.86;74.14
64294;BME280;50636;45.596;5.258;2022-12-18T01:18:05;99550.50;;;1.20;74.58
64294;BME280;50636;45.596;5.258;2022-12-18T01:20:31;99545.97;;;1.56;74.33
64294;BME280;50636;45.596;5.258;2022-12-18T01:22:57;99544.59;;;1.84;73.81
64294;BME280;50636;45.596;5.258;2022-12-18T01:25:22;99543.09;;;2.03;73.54
64294;BME280;50636;45.596;5.258;2022-12-18T01:27:48;99537.31;;;2.10;72.49
64294;BME280;50636;45.596;5.258;2022-12-18T01:30:13;99546.91;;;1.98;72.13
64294;BME280;50636;45.596;5.258;2022-12-18T01:32:39;99552.69;;;1.91;71.97
64294;BME280;50636;45.596;5.258;2022-12-18T01:35:05;99554.13;;;1.84;72.18
64294;BME280;50636;45.596;5.258;2022-12-18T01:37:31;99558.47;;;1.83;71.49
64294;BME280;50636;45.596;5.258;2022-12-18T01:39:56;99557.22;;;1.77;71.64
64294;BME280;50636;45.596;5.258;2022-12-18T01:42:22;99563.72;;;1.60;70.92
64294;BME280;50636;45.596;5.258;2022-12-18T01:45:21;99561.16;;;1.38;70.76
64294;BME280;50636;45.596;5.258;2022-12-18T01:47:56;99564.00;;;1.12;71.11
64294;BME280;50636;45.596;5.258;2022-12-18T01:50:27;99568.94;;;1.04;71.99
64294;BME280;50636;45.596;5.258;2022-12-18T01:52:58;99568.69;;;1.18;72.29
64294;BME280;50636;45.596;5.258;2022-12-18T01:55:26;99575.75;;;1.16;71.70
64294;BME280;50636;45.596;5.258;2022-12-18T01:57:55;99566.03;;;1.09;71.87
64294;BME280;50636;45.596;5.258;2022-12-18T02:00:23;99569.53;;;1.08;72.07
64294;BME280;50636;45.596;5.258;2022-12-18T02:02:49;99569.88;;;1.14;72.19
64294;BME280;50636;45.596;5.258;2022-12-18T02:05:27;99577.53;;;1.16;72.39
64294;BME280;50636;45.596;5.258;2022-12-18T02:16:44;99579.25;;;0.59;73.37
64294;BME280;50636;45.596;5.258;2022-12-18T02:25:24;99586.38;;;0.55;73.15
64294;BME280;50636;45.596;5.258;2022-12-18T02:27:52;99583.19;;;0.41;74.12
64294;BME280;50636;45.596;5.258;2022-12-18T02:30:20;99590.34;;;0.37;75.11
64294;BME280;50636;45.596;5.258;2022-12-18T02:32:50;99589.63;;;0.35;75.17
64294;BME280;50636;45.596;5.258;2022-12-18T02:35:22;99587.16;;;0.33;75.78
64294;BME280;50636;45.596;5.258;2022-12-18T02:37:49;99583.81;;;0.20;76.13
64294;BME280;50636;45.596;5.258;2022-12-18T02:40:19;99580.25;;;0.10;76.15
64294;BME280;50636;45.596;5.258;2022-12-18T02:42:46;99583.63;;;-0.01;76.45
64294;BME280;50636;45.596;5.258;2022-12-18T02:45:11;99581.13;;;-0.03;76.91
64294;BME280;50636;45.596;5.258;2022-12-18T02:47:41;99588.69;;;0.01;77.24
64294;BME280;50636;45.596;5.258;2022-12-18T02:53:13;99600.34;;;0.17;77.07
64294;BME280;50636;45.596;5.258;2022-12-18T02:56:14;99593.13;;;0.34;76.39
64294;BME280;50636;45.596;5.258;2022-12-18T02:59:02;99583.44;;;0.49;75.84
64294;BME280;50636;45.596;5.258;2022-12-18T03:01:43;99584.16;;;0.62;74.63
64294;BME280;50636;45.596;5.258;2022-12-18T03:07:08;99591.84;;;0.75;75.19
64294;BME280;50636;45.596;5.258;2022-12-18T03:09:37;99594.78;;;0.82;74.95
64294;BME280;50636;45.596;5.258;2022-12-18T03:12:13;99592.09;;;0.83;75.30
64294;BME280;50636;45.596;5.258;2022-12-18T03:15:13;99591.84;;;0.97;75.50
64294;BME280;50636;45.596;5.258;2022-12-18T03:17:42;99584.09;;;0.97;74.83
64294;BME280;50636;45.596;5.258;2022-12-18T03:20:17;99577.28;;;1.08;75.46
64294;BME280;50636;45.596;5.258;2022-12-18T03:22:46;99580.94;;;1.28;75.01
64294;BME280;50636;45.596;5.258;2022-12-18T03:25:16;99586.44;;;1.34;73.39
64294;BME280;50636;45.596;5.258;2022-12-18T03:27:49;99579.63;;;1.33;73.30
64294;BME280;50636;45.596;5.258;2022-12-18T03:30:18;99590.44;;;1.38;73.35
64294;BME280;50636;45.596;5.258;2022-12-18T03:32:48;99587.38;;;1.56;73.58
64294;BME280;50636;45.596;5.258;2022-12-18T03:35:18;99591.94;;;1.64;72.62
64294;BME280;50636;45.596;5.258;2022-12-18T03:37:45;99587.13;;;1.59;72.60
64294;BME280;50636;45.596;5.258;2022-12-18T03:40:11;99582.41;;;1.64;72.02
64294;BME280;50636;45.596;5.258;2022-12-18T03:45:26;99582.66;;;1.61;71.30
64294;BME280;50636;45.596;5.258;2022-12-18T03:48:19;99579.72;;;1.54;71.53
64294;BME280;50636;45.596;5.258;2022-12-18T03:50:56;99582.53;;;1.63;71.89
64294;BME280;50636;45.596;5.258;2022-12-18T03:53:28;99577.00;;;1.67;71.52
64294;BME280;50636;45.596;5.258;2022-12-18T03:55:59;99578.19;;;1.63;71.37
64294;BME280;50636;45.596;5.258;2022-12-18T03:58:26;99584.06;;;1.65;71.92
64294;BME280;50636;45.596;5.258;2022-12-18T04:00:56;99586.88;;;1.73;71.31
64294;BME280;50636;45.596;5.258;2022-12-18T04:03:25;99582.75;;;1.71;71.96
64294;BME280;50636;45.596;5.258;2022-12-18T04:05:54;99586.09;;;1.94;71.40
64294;BME280;50636;45.596;5.258;2022-12-18T04:08:21;99594.38;;;2.20;70.57
64294;BME280;50636;45.596;5.258;2022-12-18T04:10:50;99579.53;;;2.64;69.82
64294;BME280;50636;45.596;5.258;2022-12-18T04:13:29;99579.53;;;3.16;69.51
64294;BME280;50636;45.596;5.258;2022-12-18T04:15:54;99589.91;;;3.56;67.76
64294;BME280;50636;45.596;5.258;2022-12-18T04:18:20;99571.38;;;3.80;65.33
64294;BME280;50636;45.596;5.258;2022-12-18T04:20:46;99577.22;;;3.73;64.87
64294;BME280;50636;45.596;5.258;2022-12-18T04:23:11;99579.81;;;3.73;65.33
64294;BME280;50636;45.596;5.258;2022-12-18T04:25:37;99574.31;;;3.66;64.54
64294;BME280;50636;45.596;5.258;2022-12-18T04:28:03;99578.44;;;3.59;65.80
64294;BME280;50636;45.596;5.258;2022-12-18T04:30:28;99567.06;;;3.50;65.66
64294;BME280;50636;45.596;5.258;2022-12-18T04:32:54;99574.72;;;3.52;67.27
64294;BME280;50636;45.596;5.258;2022-12-18T04:35:19;99570.88;;;3.56;66.17
64294;BME280;50636;45.596;5.258;2022-12-18T04:37:45;99571.56;;;3.38;65.52
64294;BME280;50636;45.596;5.258;2022-12-18T04:40:11;99578.13;;;3.43;66.67
64294;BME280;50636;45.596;5.258;2022-12-18T04:42:37;99578.84;;;3.54;67.59
64294;BME280;50636;45.596;5.258;2022-12-18T04:45:02;99584.56;;;3.58;67.26
64294;BME280;50636;45.596;5.258;2022-12-18T04:47:28;99578.31;;;3.60;66.65
64294;BME280;50636;45.596;5.258;2022-12-18T04:49:54;99576.38;;;3.53;65.32
64294;BME280;50636;45.596;5.258;2022-12-18T04:52:19;99586.06;;;3.51;64.76
64294;BME280;50636;45.596;5.258;2022-12-18T04:54:48;99584.78;;;3.35;65.11
64294;BME280;50636;45.596;5.258;2022-12-18T04:57:13;99588.53;;;3.22;65.99
64294;BME280;50636;45.596;5.258;2022-12-18T04:59:39;99594.47;;;3.03;66.15
64294;BME280;50636;45.596;5.258;2022-12-18T05:02:05;99596.03;;;2.84;66.41
64294;BME280;50636;45.596;5.258;2022-12-18T05:04:30;99595.22;;;2.63;66.47
64294;BME280;50636;45.596;5.258;2022-12-18T05:06:56;99595.53;;;2.48;67.42
64294;BME280;50636;45.596;5.258;2022-12-18T05:09:22;99594.94;;;2.45;67.80
64294;BME280;50636;45.596;5.258;2022-12-18T05:11:48;99602.03;;;2.43;68.17
64294;BME280;50636;45.596;5.258;2022-12-18T05:14:13;99609.09;;;2.40;68.40
64294;BME280;50636;45.596;5.258;2022-12-18T05:16:39;99610.63;;;2.43;68.20
64294;BME280;50636;45.596;5.258;2022-12-18T05:19:05;99613.00;;;2.35;68.31
64294;BME280;50636;45.596;5.258;2022-12-18T05:21:30;99606.44;;;2.31;68.52
64294;BME280;50636;45.596;5.258;2022-12-18T05:23:56;99606.72;;;2.16;68.74
64294;BME280;50636;45.596;5.258;2022-12-18T05:26:21;99614.75;;;2.13;69.05
64294;BME280;50636;45.596;5.258;2022-12-18T05:28:47;99622.25;;;2.16;69.75
64294;BME280;50636;45.596;5.258;2022-12-18T05:31:13;99619.25;;;2.11;69.90
64294;BME280;50636;45.596;5.258;2022-12-18T05:33:39;99621.03;;;2.32;69.89
64294;BME280;50636;45.596;5.258;2022-12-18T05:36:06;99614.47;;;2.49;69.59
64294;BME280;50636;45.596;5.258;2022-12-18T05:38:38;99612.84;;;2.69;68.62
64294;BME280;50636;45.596;5.258;2022-12-18T05:41:05;99614.09;;;2.95;68.76
64294;BME280;50636;45.596;5.258;2022-12-18T05:43:30;99613.06;;;3.38;67.20
64294;BME280;50636;45.596;5.258;2022-12-18T05:45:56;99610.78;;;3.55;67.26
64294;BME280;50636;45.596;5.258;2022-12-18T05:48:23;99612.22;;;3.78;66.35
64294;BME280;50636;45.596;5.258;2022-12-18T05:50:49;99612.09;;;3.90;66.39
64294;BME280;50636;45.596;5.258;2022-12-18T05:53:17;99615.28;;;4.13;66.93
64294;BME280;50636;45.596;5.258;2022-12-18T05:55:43;99612.94;;;4.39;66.42
64294;BME280;50636;45.596;5.258;2022-12-18T05:58:11;99620.06;;;4.47;65.35
64294;BME280;50636;45.596;5.258;2022-12-18T06:00:38;99626.22;;;4.55;64.12
64294;BME280;50636;45.596;5.258;2022-12-18T06:03:09;99624.56;;;4.45;64.33
64294;BME280;50636;45.596;5.258;2022-12-18T06:05:37;99629.06;;;4.72;64.69
64294;BME280;50636;45.596;5.258;2022-12-18T06:08:03;99630.63;;;5.02;64.19
64294;BME280;50636;45.596;5.258;2022-12-18T06:10:28;99648.41;;;5.07;63.77
64294;BME280;50636;45.596;5.258;2022-12-18T06:12:54;99652.94;;;4.95;64.69
64294;BME280;50636;45.596;5.258;2022-12-18T06:15:20;99664.47;;;4.92;64.45
64294;BME280;50636;45.596;5.258;2022-12-18T06:17:45;99659.28;;;4.83;64.55
64294;BME280;50636;45.596;5.258;2022-12-18T06:20:11;99655.44;;;4.87;64.16
64294;BME280;50636;45.596;5.258;2022-12-18T06:22:37;99661.97;;;5.10;63.67
64294;BME280;50636;45.596;5.258;2022-12-18T06:25:03;99662.63;;;5.22;61.46
64294;BME280;50636;45.596;5.258;2022-12-18T06:27:28;99660.84;;;5.23;62.96
64294;BME280;50636;45.596;5.258;2022-12-18T06:29:54;99657.53;;;5.30;62.56
64294;BME280;50636;45.596;5.258;2022-12-18T06:32:20;99656.75;;;5.10;61.60
64294;BME280;50636;45.596;5.258;2022-12-18T06:34:45;99675.94;;;5.09;62.15
64294;BME280;50636;45.596;5.258;2022-12-18T06:37:11;99671.31;;;4.93;61.61
64294;BME280;50636;45.596;5.258;2022-12-18T06:39:36;99673.81;;;4.75;61.13
64294;BME280;50636;45.596;5.258;2022-12-18T06:42:03;99683.09;;;4.78;62.28
64294;BME280;50636;45.596;5.258;2022-12-18T06:44:28;99693.50;;;4.78;62.02
64294;BME280;50636;45.596;5.258;2022-12-18T06:46:55;99690.47;;;4.92;62.53
64294;BME280;50636;45.596;5.258;2022-12-18T06:49:21;99693.75;;;4.94;63.49
64294;BME280;50636;45.596;5.258;2022-12-18T06:51:47;99684.16;;;5.05;63.23
64294;BME280;50636;45.596;5.258;2022-12-18T06:54:15;99683.34;;;4.94;63.51
64294;BME280;50636;45.596;5.258;2022-12-18T06:56:41;99689.00;;;4.80;64.09
64294;BME280;50636;45.596;5.258;2022-12-18T06:59:06;99684.59;;;4.80;65.05
64294;BME280;50636;45.596;5.258;2022-12-18T07:01:32;99686.13;;;4.83;64.23
64294;BME280;50636;45.596;5.258;2022-12-18T07:03:58;99687.22;;;4.61;63.94
64294;BME280;50636;45.596;5.258;2022-12-18T07:06:25;99693.53;;;4.49;65.33
64294;BME280;50636;45.596;5.258;2022-12-18T07:08:53;99695.28;;;4.38;65.00
64294;BME280;50636;45.596;5.258;2022-12-18T07:11:19;99700.63;;;4.37;65.72
64294;BME280;50636;45.596;5.258;2022-12-18T07:13:46;99700.78;;;4.45;66.75
64294;BME280;50636;45.596;5.258;2022-12-18T07:16:17;99700.91;;;4.63;65.45
64294;BME280;50636;45.596;5.258;2022-12-18T07:18:44;99704.03;;;4.76;65.46
64294;BME280;50636;45.596;5.258;2022-12-18T07:21:16;99692.81;;;4.66;64.81
64294;BME280;50636;45.596;5.258;2022-12-18T07:23:42;99706.78;;;4.36;64.73
64294;BME280;50636;45.596;5.258;2022-12-18T07:26:10;99707.28;;;4.20;65.49
64294;BME280;50636;45.596;5.258;2022-12-18T07:28:36;99712.63;;;4.28;66.16
64294;BME280;50636;45.596;5.258;2022-12-18T07:31:04;99708.28;;;4.29;65.29
64294;BME280;50636;45.596;5.258;2022-12-18T07:33:32;99717.06;;;4.57;65.92
64294;BME280;50636;45.596;5.258;2022-12-18T07:35:59;99715.13;;;5.08;64.40
64294;BME280;50636;45.596;5.258;2022-12-18T07:38:24;99705.00;;;5.52;64.28
64294;BME280;50636;45.596;5.258;2022-12-18T07:40:50;99708.31;;;6.09;62.25
64294;BME280;50636;45.596;5.258;2022-12-18T07:43:16;99705.16;;;6.51;61.21
64294;BME280;50636;45.596;5.258;2022-12-18T07:45:42;99712.75;;;6.98;60.00
64294;BME280;50636;45.596;5.258;2022-12-18T07:48:08;99714.22;;;7.19;58.52
64294;BME280;50636;45.596;5.258;2022-12-18T07:50:33;99708.22;;;6.83;58.30
64294;BME280;50636;45.596;5.258;2022-12-18T07:52:59;99713.91;;;6.60;58.78
64294;BME280;50636;45.596;5.258;2022-12-18T07:55:29;99717.78;;;6.38;59.21
64294;BME280;50636;45.596;5.258;2022-12-18T07:57:55;99715.22;;;6.28;59.56
64294;BME280;50636;45.596;5.258;2022-12-18T08:00:21;99713.25;;;6.12;59.73
64294;BME280;50636;45.596;5.258;2022-12-18T08:02:47;99719.09;;;5.96;59.84
64294;BME280;50636;45.596;5.258;2022-12-18T08:05:13;99721.53;;;5.70;59.76
64294;BME280;50636;45.596;5.258;2022-12-18T08:07:39;99730.63;;;5.47;60.61
64294;BME280;50636;45.596;5.258;2022-12-18T08:10:05;99730.13;;;5.33;61.09
64294;BME280;50636;45.596;5.258;2022-12-18T08:12:31;99729.56;;;5.39;61.96
64294;BME280;50636;45.596;5.258;2022-12-18T08:14:57;99724.44;;;5.57;62.99
64294;BME280;50636;45.596;5.258;2022-12-18T08:17:22;99719.50;;;5.64;61.51
64294;BME280;50636;45.596;5.258;2022-12-18T08:19:48;99712.50;;;6.02;62.68
64294;BME280;50636;45.596;5.258;2022-12-18T08:22:13;99703.38;;;6.70;60.18
64294;BME280;50636;45.596;5.258;2022-12-18T08:24:39;99701.03;;;7.03;58.20
64294;BME280;50636;45.596;5.258;2022-12-18T08:27:04;99683.78;;;7.36;57.83
64294;BME280;50636;45.596;5.258;2022-12-18T08:29:30;99686.97;;;7.90;56.75
64294;BME280;50636;45.596;5.258;2022-12-18T08:31:57;99688.06;;;8.30;56.10
64294;BME280;50636;45.596;5.258;2022-12-18T08:34:23;99690.41;;;8.99;55.26
64294;BME280;50636;45.596;5.258;2022-12-18T08:36:48;99694.63;;;9.33;53.73
64294;BME280;50636;45.596;5.258;2022-12-18T08:39:14;99696.81;;;10.08;53.77
64294;BME280;50636;45.596;5.258;2022-12-18T08:41:39;99689.31;;;10.97;51.03
64294;BME280;50636;45.596;5.258;2022-12-18T08:44:07;99688.00;;;11.31;49.85
64294;BME280;50636;45.596;5.258;2022-12-18T08:46:51;99693.66;;;11.43;47.98
64294;BME280;50636;45.596;5.258;2022-12-18T08:49:17;99692.16;;;11.40;48.56
64294;BME280;50636;45.596;5.258;2022-12-18T08:51:43;99690.47;;;11.48;47.11
64294;BME280;50636;45.596;5.258;2022-12-18T08:54:11;99692.19;;;11.55;47.63
64294;BME280;50636;45.596;5.258;2022-12-18T08:56:37;99688.91;;;11.38;46.24
64294;BME280;50636;45.596;5.258;2022-12-18T08:59:02;99703.69;;;11.39;46.40
64294;BME280;50636;45.596;5.258;2022-12-18T09:01:29;99703.78;;;11.76;45.48
64294;BME280;50636;45.596;5.258;2022-12-18T09:03:55;99694.72;;;11.93;44.42
64294;BME280;50636;45.596;5.258;2022-12-18T09:06:21;99686.63;;;11.95;44.09
64294;BME280;50636;45.596;5.258;2022-12-18T09:08:47;99685.28;;;11.84;45.35
64294;BME280;50636;45.596;5.258;2022-12-18T09:11:24;99679.56;;;11.80;45.14
64294;BME280;50636;45.596;5.258;2022-12-18T09:13:51;99696.25;;;11.88;45.16
64294;BME280;50636;45.596;5.258;2022-12-18T09:16:17;99702.13;;;12.05;45.33
64294;BME280;50636;45.596;5.258;2022-12-18T09:18:43;99708.66;;;12.09;44.65
64294;BME280;50636;45.596;5.258;2022-12-18T09:21:17;99713.31;;;11.92;44.50
64294;BME280;50636;45.596;5.258;2022-12-18T09:23:43;99709.38;;;12.17;44.17
64294;BME280;50636;45.596;5.258;2022-12-18T09:26:09;99714.31;;;12.64;43.91
64294;BME280;50636;45.596;5.258;2022-12-18T09:28:35;99716.66;;;13.02;42.96
64294;BME280;50636;45.596;5.258;2022-12-18T09:31:08;99719.75;;;13.12;43.08
64294;BME280;50636;45.596;5.258;2022-12-18T09:33:37;99718.66;;;13.28;42.03
64294;BME280;50636;45.596;5.258;2022-12-18T09:36:05;99716.69;;;13.30;42.17
64294;BME280;50636;45.596;5.258;2022-12-18T09:38:32;99721.59;;;13.11;42.07
64294;BME280;50636;45.596;5.258;2022-12-18T09:44:39;99721.97;;;13.30;42.28
64294;BME280;50636;45.596;5.258;2022-12-18T09:47:20;99725.09;;;13.18;42.45
64294;BME280;50636;45.596;5.258;2022-12-18T09:49:55;99718.50;;;13.29;41.91
64294;BME280;50636;45.596;5.258;2022-12-18T09:52:41;99716.31;;;13.33;42.31
64294;BME280;50636;45.596;5.258;2022-12-18T09:55:30;99734.72;;;13.54;42.43
64294;BME280;50636;45.596;5.258;2022-12-18T10:01:14;99720.91;;;13.52;42.33
64294;BME280;50636;45.596;5.258;2022-12-18T10:03:41;99731.81;;;13.84;41.51
64294;BME280;50636;45.596;5.258;2022-12-18T10:06:10;99725.91;;;13.75;42.11
64294;BME280;50636;45.596;5.258;2022-12-18T10:11:57;99731.97;;;13.76;42.15
64294;BME280;50636;45.596;5.258;2022-12-18T10:14:36;99727.63;;;13.55;41.59
64294;BME280;50636;45.596;5.258;2022-12-18T10:20:02;99723.78;;;13.29;43.35
64294;BME280;50636;45.596;5.258;2022-12-18T10:22:48;99721.66;;;13.81;42.05
64294;BME280;50636;45.596;5.258;2022-12-18T10:25:24;99723.94;;;13.91;41.55
64294;BME280;50636;45.596;5.258;2022-12-18T10:27:55;99714.84;;;13.58;42.17
64294;BME280;50636;45.596;5.258;2022-12-18T10:30:24;99706.72;;;13.60;42.30
64294;BME280;50636;45.596;5.258;2022-12-18T10:32:51;99707.31;;;13.97;42.01
64294;BME280;50636;45.596;5.258;2022-12-18T10:35:23;99702.31;;;14.15;41.32
64294;BME280;50636;45.596;5.258;2022-12-18T10:43:38;99704.81;;;14.37;40.59
64294;BME280;50636;45.596;5.258;2022-12-18T10:46:12;99711.19;;;13.94;41.92
64294;BME280;50636;45.596;5.258;2022-12-18T10:48:56;99698.63;;;13.62;42.76
64294;BME280;50636;45.596;5.258;2022-12-18T10:51:28;99694.03;;;13.77;42.62
64294;BME280;50636;45.596;5.258;2022-12-18T10:56:26;99683.69;;;14.37;41.48
64294;BME280;50636;45.596;5.258;2022-12-18T10:59:01;99688.81;;;14.58;41.43
64294;BME280;50636;45.596;5.258;2022-12-18T11:01:27;99686.81;;;14.94;41.18
64294;BME280;50636;45.596;5.258;2022-12-18T11:06:22;99683.84;;;15.62;40.38
64294;BME280;50636;45.596;5.258;2022-12-18T11:09:04;99694.22;;;16.15;39.30
64294;BME280;50636;45.596;5.258;2022-12-18T11:11:31;99680.13;;;16.28;39.13
64294;BME280;50636;45.596;5.258;2022-12-18T11:14:04;99682.69;;;16.03;39.61
64294;BME280;50636;45.596;5.258;2022-12-18T11:16:36;99678.22;;;15.97;39.12
64294;BME280;50636;45.596;5.258;2022-12-18T11:19:31;99673.44;;;15.67;40.06
64294;BME280;50636;45.596;5.258;2022-12-18T11:21:59;99669.53;;;15.90;39.70
64294;BME280;50636;45.596;5.258;2022-12-18T11:24:33;99661.56;;;16.28;39.64
64294;BME280;50636;45.596;5.258;2022-12-18T11:27:02;99658.09;;;16.60;39.60
64294;BME280;50636;45.596;5.258;2022-12-18T11:29:35;99649.50;;;16.64;39.32
64294;BME280;50636;45.596;5.258;2022-12-18T11:32:41;99634.09;;;16.23;39.14
64294;BME280;50636;45.596;5.258;2022-12-18T11:37:53;99639.69;;;16.08;40.21
64294;BME280;50636;45.596;5.258;2022-12-18T11:40:25;99637.88;;;16.02;40.63
64294;BME280;50636;45.596;5.258;2022-12-18T11:45:33;99637.81;;;15.63;41.83
64294;BME280;50636;45.596;5.258;2022-12-18T11:48:22;99633.66;;;15.87;41.63
64294;BME280;50636;45.596;5.258;2022-12-18T11:53:17;99647.19;;;15.72;42.08
64294;BME280;50636;45.596;5.258;2022-12-18T11:55:52;99652.88;;;15.76;42.58
64294;BME280;50636;45.596;5.258;2022-12-18T11:58:47;99641.19;;;16.29;41.91
64294;BME280;50636;45.596;5.258;2022-12-18T12:06:32;99631.84;;;16.51;41.18
64294;BME280;50636;45.596;5.258;2022-12-18T12:12:23;99634.03;;;16.36;41.62
64294;BME280;50636;45.596;5.258;2022-12-18T12:17:21;99627.25;;;16.40;42.51
64294;BME280;50636;45.596;5.258;2022-12-18T12:20:06;99626.94;;;16.30;42.29
64294;BME280;50636;45.596;5.258;2022-12-18T12:34:15;99609.34;;;17.11;41.35
64294;BME280;50636;45.596;5.258;2022-12-18T12:39:30;99610.28;;;16.73;41.57
64294;BME280;50636;45.596;5.258;2022-12-18T12:41:57;99602.38;;;16.41;41.73
64294;BME280;50636;45.596;5.258;2022-12-18T12:44:48;99603.84;;;16.37;42.35
64294;BME280;50636;45.596;5.258;2022-12-18T12:47:18;99606.53;;;16.81;41.60
64294;BME280;50636;45.596;5.258;2022-12-18T12:49:45;99597.22;;;16.71;42.02
64294;BME280;50636;45.596;5.258;2022-12-18T12:52:30;99606.00;;;16.72;42.15
64294;BME280;50636;45.596;5.258;2022-12-18T12:54:58;99608.25;;;17.19;40.71
64294;BME280;50636;45.596;5.258;2022-12-18T12:57:35;99599.06;;;17.51;39.87
64294;BME280;50636;45.596;5.258;2022-12-18T13:00:08;99595.97;;;17.54;40.01
64294;BME280;50636;45.596;5.258;2022-12-18T13:02:56;99592.53;;;17.17;39.77
64294;BME280;50636;45.596;5.258;2022-12-18T13:05:34;99594.22;;;16.93;41.28
64294;BME280;50636;45.596;5.258;2022-12-18T13:08:09;99587.13;;;16.62;41.02
64294;BME280;50636;45.596;5.258;2022-12-18T13:10:44;99585.53;;;16.04;42.51
64294;BME280;50636;45.596;5.258;2022-12-18T13:13:11;99572.94;;;15.99;43.12
64294;BME280;50636;45.596;5.258;2022-12-18T13:15:48;99569.81;;;15.70;43.56
64294;BME280;50636;45.596;5.258;2022-12-18T13:18:23;99577.16;;;15.68;44.37
64294;BME280;50636;45.596;5.258;2022-12-18T13:20:50;99583.69;;;15.72;45.04
64294;BME280;50636;45.596;5.258;2022-12-18T13:23:33;99584.13;;;16.01;44.19
64294;BME280;50636;45.596;5.258;2022-12-18T13:34:23;99559.22;;;16.09;43.90
64294;BME280;50636;45.596;5.258;2022-12-18T13:36:49;99561.81;;;16.15;44.18
64294;BME280;50636;45.596;5.258;2022-12-18T13:41:45;99555.91;;;16.13;44.98
64294;BME280;50636;45.596;5.258;2022-12-18T13:44:37;99556.09;;;16.44;44.35
64294;BME280;50636;45.596;5.258;2022-12-18T13:47:27;99553.13;;;16.58;42.74
64294;BME280;50636;45.596;5.258;2022-12-18T13:49:57;99562.97;;;16.70;43.12
64294;BME280;50636;45.596;5.258;2022-12-18T13:52:26;99562.84;;;16.65;42.58
64294;BME280;50636;45.596;5.258;2022-12-18T13:54:54;99565.91;;;16.62;43.76
64294;BME280;50636;45.596;5.258;2022-12-18T13:57:29;99558.38;;;16.40;43.26
64294;BME280;50636;45.596;5.258;2022-12-18T13:59:56;99551.34;;;16.27;44.39
64294;BME280;50636;45.596;5.258;2022-12-18T14:02:24;99553.13;;;16.08;45.02
64294;BME280;50636;45.596;5.258;2022-12-18T14:04:51;99548.03;;;15.75;44.79
64294;BME280;50636;45.596;5.258;2022-12-18T14:07:20;99556.53;;;15.38;45.73
64294;BME280;50636;45.596;5.258;2022-12-18T14:09:52;99561.66;;;15.27;46.52
64294;BME280;50636;45.596;5.258;2022-12-18T14:12:28;99564.72;;;15.24;46.28
64294;BME280;50636;45.596;5.258;2022-12-18T14:20:44;99563.66;;;14.73;48.18
64294;BME280;50636;45.596;5.258;2022-12-18T14:23:40;99557.53;;;14.79;47.17
64294;BME280;50636;45.596;5.258;2022-12-18T14:26:25;99556.72;;;14.32;48.23
64294;BME280;50636;45.596;5.258;2022-12-18T14:28:55;99557.13;;;14.29;49.12
64294;BME280;50636;45.596;5.258;2022-12-18T14:31:23;99562.81;;;14.19;48.84
64294;BME280;50636;45.596;5.258;2022-12-18T14:33:51;99562.13;;;13.90;49.36
64294;BME280;50636;45.596;5.258;2022-12-18T14:36:22;99563.06;;;13.49;49.92
64294;BME280;50636;45.596;5.258;2022-12-18T14:38:53;99564.91;;;13.14;51.03
64294;BME280;50636;45.596;5.258;2022-12-18T14:41:20;99565.91;;;13.13;51.73
64294;BME280;50636;45.596;5.258;2022-12-18T14:43:48;99558.44;;;13.16;51.38
64294;BME280;50636;45.596;5.258;2022-12-18T14:46:37;99567.50;;;13.07;51.05
64294;BME280;50636;45.596;5.258;2022-12-18T14:49:17;99564.53;;;12.82;52.10
64294;BME280;50636;45.596;5.258;2022-12-18T14:51:49;99568.78;;;12.83;53.06
64294;BME280;50636;45.596;5.258;2022-12-18T14:54:18;99567.81;;;12.91;52.80
64294;BME280;50636;45.596;5.258;2022-12-18T14:59:40;99574.22;;;12.82;52.60
64294;BME280;50636;45.596;5.258;2022-12-18T15:04:46;99578.31;;;12.84;51.88